Time;durP1;ratioP1;P1;durP2;ratioP2;P2;SDS_P1;SDS_P2;PMS_P1;PMS_P2;Temp;Humidity;BMP_temperature;BMP_pressure;BME280_temperature;BME280_humidity;BME280_pressure;Samples;Min_cycle;Max_cycle;Signal;HPM_P1;HPM_P2
2022/04/05 00:01:02;;;;;;;;;9.67;9.67;;;;;12.46;51.83;101072.09;4995059;28;45361;-82
2022/04/05 00:03:27;;;;;;;;;10.67;10.67;;;;;12.56;51.88;101093.94;4993166;28;47173;-82
2022/04/05 00:05:52;;;;;;;;;10.00;9.67;;;;;12.57;52.12;101098.34;4995150;28;45455;-82
2022/04/05 00:08:18;;;;;;;;;10.33;10.33;;;;;12.43;52.56;101065.09;4997205;28;45912;-82
2022/04/05 00:10:43;;;;;;;;;12.33;10.67;;;;;12.40;52.49;101061.69;4997508;28;45475;-82
2022/04/05 00:13:09;;;;;;;;;10.00;10.00;;;;;12.58;52.51;101084.03;4997063;28;46043;-82
2022/04/05 00:15:35;;;;;;;;;8.67;8.67;;;;;12.59;52.94;101094.63;4997518;28;45446;-82
2022/04/05 00:18:01;;;;;;;;;10.00;7.67;;;;;12.48;53.11;101072.00;4997342;27;45289;-81
2022/04/05 00:20:29;;;;;;;;;9.00;7.67;;;;;12.45;52.78;101063.22;4997762;27;45713;-81
2022/04/05 00:22:55;;;;;;;;;9.00;9.00;;;;;12.68;52.94;101091.53;4997180;27;46021;-81
2022/04/05 00:25:21;;;;;;;;;7.33;7.33;;;;;12.72;52.97;101094.97;4996986;27;45396;-81
2022/04/05 00:27:47;;;;;;;;;8.33;7.33;;;;;12.37;53.47;101040.47;4997040;27;45473;-81
2022/04/05 00:30:13;;;;;;;;;10.00;10.00;;;;;12.60;53.42;101091.06;4997319;28;45250;-82
2022/04/05 00:32:39;;;;;;;;;10.67;9.67;;;;;12.56;53.76;101078.75;4997015;28;45423;-81
2022/04/05 00:35:05;;;;;;;;;10.00;9.00;;;;;12.68;53.84;101091.53;4997027;28;45372;-81
2022/04/05 00:37:31;;;;;;;;;11.67;11.33;;;;;12.63;53.90;101087.34;4997252;28;45310;-82
2022/04/05 00:39:56;;;;;;;;;7.67;7.67;;;;;12.65;54.07;101096.19;4995924;28;45445;-81
2022/04/05 00:42:22;;;;;;;;;8.67;8.67;;;;;12.65;54.13;101086.34;4996716;28;45460;-82
2022/04/05 00:44:47;;;;;;;;;8.67;8.67;;;;;12.40;54.15;101043.84;4996864;28;45391;-81
2022/04/05 00:47:17;;;;;;;;;10.33;10.33;;;;;12.47;53.96;101068.47;4997122;28;45411;-81
2022/04/05 00:49:46;;;;;;;;;8.67;8.67;;;;;12.25;54.93;101037.41;4997674;28;45310;-81
2022/04/05 00:52:14;;;;;;;;;10.67;10.67;;;;;12.52;54.92;101084.31;4995992;27;45450;-81
2022/04/05 00:54:40;;;;;;;;;10.00;10.00;;;;;12.51;55.04;101088.81;4996927;28;45404;-81
2022/04/05 00:57:11;;;;;;;;;11.67;10.67;;;;;12.53;55.81;101083.41;4996326;27;45435;-82
2022/04/05 00:59:41;;;;;;;;;9.67;9.67;;;;;12.40;55.59;101072.38;4996703;28;45749;-81
2022/04/05 01:02:11;;;;;;;;;9.00;9.00;;;;;12.24;56.57;101043.69;4996008;27;45337;-82
2022/04/05 01:04:38;;;;;;;;;10.00;9.67;;;;;12.36;56.78;101057.41;4996195;27;45554;-81
2022/04/05 01:07:08;;;;;;;;;11.67;11.67;;;;;12.45;56.83;101075.69;4996234;28;45392;-81
2022/04/05 01:09:35;;;;;;;;;9.33;9.33;;;;;12.40;56.53;101059.00;4997077;28;45357;-81
2022/04/05 01:12:01;;;;;;;;;9.00;9.00;;;;;12.42;56.53;101070.50;4996389;27;45439;-81
2022/04/05 01:14:26;;;;;;;;;11.33;11.33;;;;;12.27;56.64;101045.38;4996445;28;45801;-82
2022/04/05 01:16:51;;;;;;;;;15.33;10.00;;;;;12.04;56.60;101001.00;4996243;28;45841;-82
2022/04/05 01:19:17;;;;;;;;;12.67;10.67;;;;;12.42;56.90;101071.38;4996967;27;45353;-81
2022/04/05 01:21:42;;;;;;;;;11.33;9.67;;;;;12.43;56.82;101074.91;4996515;28;46112;-82
2022/04/05 01:24:12;;;;;;;;;9.33;9.33;;;;;12.26;56.60;101046.28;4996253;27;45408;-82
2022/04/05 01:26:46;;;;;;;;;8.67;7.67;;;;;12.35;56.25;101045.84;4995373;28;45334;-82
2022/04/05 01:29:13;;;;;;;;;9.33;7.67;;;;;12.44;56.87;101058.81;4996271;28;45168;-82
2022/04/05 01:31:53;;;;;;;;;11.00;11.00;;;;;12.29;56.75;101032.81;4996005;27;46847;-81
2022/04/05 01:34:21;;;;;;;;;12.00;10.33;;;;;12.35;57.11;101035.16;5002703;28;45528;-82
2022/04/05 01:36:52;;;;;;;;;10.67;10.67;;;;;12.43;57.44;101048.16;4995201;28;45509;-82
2022/04/05 01:39:20;;;;;;;;;11.67;10.67;;;;;12.36;57.12;101034.25;4996602;27;45429;-82
2022/04/05 01:41:50;;;;;;;;;11.67;8.67;;;;;12.46;56.99;101048.06;4996188;27;45345;-81
2022/04/05 01:44:16;;;;;;;;;11.33;11.33;;;;;12.33;58.13;101021.00;4996149;27;45383;-82
2022/04/05 01:46:42;;;;;;;;;11.67;10.33;;;;;12.45;57.97;101049.88;4996341;27;45453;-81
2022/04/05 01:49:13;;;;;;;;;8.67;8.67;;;;;12.06;57.80;100979.53;4996303;27;45611;-82
2022/04/05 01:51:39;;;;;;;;;11.00;8.33;;;;;12.46;57.84;101045.38;4994693;27;47213;-82
2022/04/05 01:54:06;;;;;;;;;13.00;12.00;;;;;12.10;57.82;100986.47;4994295;28;45390;-82
2022/04/05 01:56:43;;;;;;;;;6.33;6.33;;;;;12.43;57.87;101042.81;4996437;28;45380;-81
2022/04/05 01:59:14;;;;;;;;;10.00;10.00;;;;;12.16;57.79;100992.41;4995807;28;45455;-81
2022/04/05 02:01:41;;;;;;;;;11.00;11.00;;;;;12.36;57.93;101030.69;4996005;28;45503;-82
2022/04/05 02:04:08;;;;;;;;;12.67;10.67;;;;;12.42;58.23;101038.44;4995667;28;45471;-81
2022/04/05 02:06:33;;;;;;;;;11.33;9.33;;;;;12.43;58.05;101040.16;4996152;28;45416;-82
2022/04/05 02:08:59;;;;;;;;;11.67;9.33;;;;;12.41;58.19;101028.69;4996182;28;45433;-82
2022/04/05 02:11:24;;;;;;;;;10.67;9.00;;;;;12.44;57.92;101034.75;4994158;28;47152;-82
2022/04/05 02:13:50;;;;;;;;;11.67;10.00;;;;;12.30;57.89;101013.13;4995874;27;45400;-82
2022/04/05 02:16:15;;;;;;;;;7.67;7.67;;;;;12.35;57.93;101018.28;4995812;27;45327;-82
2022/04/05 02:18:41;;;;;;;;;9.33;9.33;;;;;12.53;57.61;101041.47;4996496;27;45402;-82
2022/04/05 02:21:07;;;;;;;;;9.67;8.67;;;;;12.41;58.02;101029.56;4995234;27;46038;-82
2022/04/05 02:23:33;;;;;;;;;12.33;9.00;;;;;12.28;57.75;101016.81;4995963;28;45446;-82
2022/04/05 02:25:58;;;;;;;;;11.00;10.00;;;;;12.44;58.12;101042.75;4995552;28;46077;-81
2022/04/05 02:28:24;;;;;;;;;10.33;10.33;;;;;12.27;58.42;101015.06;4995334;28;45401;-82
2022/04/05 02:30:50;;;;;;;;;7.33;7.33;;;;;12.39;58.49;101033.25;4995668;28;46086;-82
2022/04/05 02:33:15;;;;;;;;;8.67;8.67;;;;;12.43;58.40;101038.38;4995344;27;45348;-82
2022/04/05 02:35:40;;;;;;;;;9.33;9.33;;;;;12.24;58.11;101003.63;4995715;27;45237;-82
2022/04/05 02:38:06;;;;;;;;;12.33;11.00;;;;;12.35;58.43;101016.47;4995589;27;45436;-82
2022/04/05 02:40:31;;;;;;;;;10.67;10.67;;;;;12.41;59.06;101031.38;4995328;28;46339;-82
2022/04/05 02:42:57;;;;;;;;;10.00;10.00;;;;;12.24;58.88;100992.94;4995513;27;45475;-82
2022/04/05 02:45:23;;;;;;;;;7.33;7.33;;;;;12.35;58.83;101013.78;4995447;28;46000;-82
2022/04/05 02:47:49;;;;;;;;;8.33;8.33;;;;;12.40;59.07;101017.09;4996085;28;45444;-82
2022/04/05 02:50:17;;;;;;;;;11.00;11.00;;;;;12.40;59.37;101018.91;4994797;28;45667;-82
2022/04/05 02:52:45;;;;;;;;;9.00;9.00;;;;;12.45;59.58;101022.22;4995571;28;45377;-82
2022/04/05 02:55:10;;;;;;;;;8.33;8.33;;;;;12.46;59.74;101022.19;4995314;28;45433;-82
2022/04/05 02:57:37;;;;;;;;;12.00;9.67;;;;;12.08;60.44;100953.59;4995855;28;45410;-82
2022/04/05 03:00:03;;;;;;;;;8.00;7.67;;;;;12.11;60.17;100959.69;4995332;28;45558;-82
2022/04/05 03:02:29;;;;;;;;;12.67;11.67;;;;;12.22;60.68;100984.09;4994926;28;45479;-82
2022/04/05 03:04:54;;;;;;;;;12.33;10.33;;;;;11.57;60.23;100881.16;4995508;28;45400;-82
2022/04/05 03:07:20;;;;;;;;;8.67;8.67;;;;;12.29;60.48;101002.50;4995329;28;45477;-82
2022/04/05 03:09:45;;;;;;;;;10.67;8.67;;;;;12.42;60.20;101025.06;4995226;28;51308;-82
2022/04/05 03:12:11;;;;;;;;;10.33;10.33;;;;;12.27;61.24;101001.72;4994657;28;45472;-82
2022/04/05 03:14:37;;;;;;;;;11.67;10.33;;;;;12.39;60.92;101020.72;4995223;28;45426;-82
2022/04/05 03:17:03;;;;;;;;;12.33;9.33;;;;;12.25;60.72;100988.44;4995329;28;45346;-82
2022/04/05 03:19:28;;;;;;;;;10.67;9.33;;;;;12.12;60.50;100965.88;4994679;28;46011;-81
2022/04/05 03:21:54;;;;;;;;;8.67;7.33;;;;;12.40;60.97;101016.25;4994904;28;46199;-82
2022/04/05 03:24:19;;;;;;;;;9.00;7.50;;;;;12.19;60.79;100980.69;4994794;28;45630;-82
2022/04/05 03:26:45;;;;;;;;;9.00;8.33;;;;;12.14;60.39;100966.69;5008575;28;45376;-82
2022/04/05 03:29:10;;;;;;;;;9.33;7.67;;;;;12.21;60.98;100990.38;5014599;28;45949;-82
2022/04/05 03:31:35;;;;;;;;;9.67;8.00;;;;;11.88;61.21;100933.19;5001416;28;59467;-82
2022/04/05 03:34:01;;;;;;;;;9.33;7.67;;;;;12.35;61.37;101005.75;4993827;27;45393;-82
2022/04/05 03:36:26;;;;;;;;;8.67;8.33;;;;;12.12;61.11;100976.56;4995257;27;45905;-82
2022/04/05 03:38:51;;;;;;;;;11.67;10.33;;;;;12.37;61.19;101011.91;4994077;28;46121;-82
2022/04/05 03:41:17;;;;;;;;;12.00;7.67;;;;;12.37;61.16;101008.38;4994029;27;45400;-82
2022/04/05 03:43:42;;;;;;;;;12.33;9.67;;;;;12.36;61.00;101010.19;4995093;28;45458;-82
2022/04/05 03:46:07;;;;;;;;;8.33;8.33;;;;;12.16;61.46;100963.00;4993773;28;45537;-82
2022/04/05 03:48:33;;;;;;;;;7.33;7.33;;;;;12.25;61.25;100975.06;4994652;27;48423;-82
2022/04/05 03:50:58;;;;;;;;;8.67;7.00;;;;;12.42;62.05;100998.34;4994474;28;45710;-82
2022/04/05 03:53:24;;;;;;;;;8.00;8.00;;;;;12.11;62.22;100945.47;4994034;27;45544;-82
2022/04/05 03:55:50;;;;;;;;;9.33;8.00;;;;;12.06;62.18;100939.44;4995183;28;45335;-82
2022/04/05 03:58:15;;;;;;;;;8.33;8.33;;;;;12.18;62.07;100955.78;4993767;28;47776;-82
2022/04/05 04:00:40;;;;;;;;;8.67;7.33;;;;;12.32;62.00;100992.56;4993069;28;45422;-82
2022/04/05 04:03:06;;;;;;;;;8.00;7.33;;;;;12.27;62.71;100991.03;4994696;28;45349;-82
2022/04/05 04:05:31;;;;;;;;;8.33;8.33;;;;;12.17;63.21;100982.56;4993488;28;45385;-82
2022/04/05 04:07:56;;;;;;;;;8.67;8.67;;;;;12.30;63.24;100996.25;4994328;28;45381;-82
2022/04/05 04:10:22;;;;;;;;;10.67;7.67;;;;;12.00;63.66;100941.47;4993860;28;45429;-82
2022/04/05 04:12:47;;;;;;;;;9.67;8.00;;;;;12.30;63.45;100997.09;4994278;28;45258;-82
2022/04/05 04:15:13;;;;;;;;;7.33;7.33;;;;;12.21;63.33;100982.34;4994168;28;45427;-82
2022/04/05 04:17:38;;;;;;;;;7.67;6.33;;;;;12.23;63.68;100969.78;5009091;27;47424;-82
2022/04/05 04:20:05;;;;;;;;;8.67;8.67;;;;;12.27;63.41;100986.56;4993943;28;45409;-82
2022/04/05 04:22:31;;;;;;;;;7.67;7.67;;;;;12.10;63.92;100959.75;4994376;28;45430;-82
2022/04/05 04:24:57;;;;;;;;;9.00;9.00;;;;;12.16;64.31;100964.81;4994608;28;45384;-82
2022/04/05 04:27:24;;;;;;;;;7.00;7.00;;;;;11.98;64.08;100935.34;4993154;28;46115;-82
2022/04/05 04:29:49;;;;;;;;;7.00;7.00;;;;;12.33;63.86;100983.59;4994174;28;45810;-82
2022/04/05 04:32:14;;;;;;;;;7.67;7.67;;;;;12.31;64.18;100985.47;4993918;28;45383;-82
2022/04/05 04:34:40;;;;;;;;;6.67;6.67;;;;;12.33;64.48;100985.41;4993416;28;45456;-81
2022/04/05 04:37:05;;;;;;;;;8.33;8.33;;;;;12.31;64.87;100997.97;4993413;27;45359;-82
2022/04/05 04:39:32;;;;;;;;;8.33;7.33;;;;;12.23;64.37;100975.13;4993211;28;45487;-83
2022/04/05 04:41:58;;;;;;;;;8.33;8.33;;;;;12.23;64.72;100979.63;4992821;28;45390;-84
2022/04/05 04:44:24;;;;;;;;;7.67;7.67;;;;;12.08;64.56;100946.47;4993041;27;45345;-83
2022/04/05 04:46:49;;;;;;;;;9.67;8.00;;;;;12.29;64.82;100984.69;4993343;28;45479;-83
2022/04/05 04:49:15;;;;;;;;;6.67;6.67;;;;;11.87;64.98;100910.94;4993442;28;45402;-83
2022/04/05 04:51:40;;;;;;;;;9.67;9.33;;;;;12.02;64.94;100933.41;4995703;28;45402;-80
2022/04/05 04:54:05;;;;;;;;;12.00;8.67;;;;;12.25;64.94;100975.94;4996482;27;45326;-80
2022/04/05 04:56:31;;;;;;;;;6.67;6.67;;;;;12.27;65.15;100975.00;4995739;27;45457;-81
2022/04/05 04:58:57;;;;;;;;;9.33;9.33;;;;;12.12;65.10;100953.41;4996538;27;45610;-83
2022/04/05 05:01:22;;;;;;;;;6.67;6.67;;;;;11.98;65.10;100931.81;4996238;27;45615;-83
2022/04/05 05:03:47;;;;;;;;;13.33;13.00;;;;;12.27;65.53;100983.00;4996919;28;45375;-84
2022/04/05 05:06:13;;;;;;;;;31.67;28.67;;;;;12.12;65.37;100956.06;4995442;28;57514;-83
2022/04/05 05:08:38;;;;;;;;;10.33;9.00;;;;;12.16;65.28;100963.00;4995488;27;51237;-82
2022/04/05 05:11:03;;;;;;;;;11.33;10.00;;;;;11.94;65.37;100928.44;5023459;27;45674;-84
2022/04/05 05:13:31;;;;;;;;;8.67;8.67;;;;;12.11;65.55;100950.81;5015164;28;45387;-84
2022/04/05 05:15:56;;;;;;;;;8.33;8.33;;;;;11.78;65.79;100895.31;5018316;28;48318;-84
2022/04/05 05:18:21;;;;;;;;;7.67;6.67;;;;;12.07;65.85;100933.19;5011339;28;45486;-84
2022/04/05 05:20:47;;;;;;;;;8.67;8.67;;;;;12.24;65.45;100968.88;4982151;28;45623;-83
2022/04/05 05:23:12;;;;;;;;;9.33;7.67;;;;;12.27;65.05;100967.84;5004925;27;45432;-83
2022/04/05 05:25:38;;;;;;;;;11.33;8.67;;;;;11.98;65.75;100916.63;4995515;28;45492;-85
2022/04/05 05:28:03;;;;;;;;;10.67;10.67;;;;;12.08;65.45;100935.78;4994578;28;45809;-84
2022/04/05 05:30:29;;;;;;;;;10.33;9.67;;;;;12.22;65.58;100956.50;4995926;28;45402;-84
2022/04/05 05:32:54;;;;;;;;;8.33;8.00;;;;;12.11;65.79;100932.97;4996372;28;45525;-83
2022/04/05 05:35:21;;;;;;;;;9.00;9.00;;;;;12.37;65.57;100982.50;4994722;28;45695;-83
2022/04/05 05:37:48;;;;;;;;;8.33;8.33;;;;;12.24;65.43;100951.94;4995176;27;45411;-83
2022/04/05 05:40:15;;;;;;;;;10.33;10.33;;;;;12.43;65.42;100978.66;4995166;27;45529;-84
2022/04/05 05:42:58;;;;;;;;;13.33;12.33;;;;;12.37;65.59;100963.81;4993244;28;45522;-85
2022/04/05 05:45:25;;;;;;;;;9.33;9.33;;;;;12.18;65.61;100928.22;4990192;27;45569;-86
2022/04/05 05:47:51;;;;;;;;;11.67;11.67;;;;;12.52;65.27;100967.53;4993380;28;45494;-85
2022/04/05 05:50:16;;;;;;;;;8.67;8.33;;;;;12.49;65.48;100977.53;4994227;28;45413;-85
2022/04/05 05:52:43;;;;;;;;;9.67;9.67;;;;;12.54;65.39;100978.16;4999303;28;45393;-84
2022/04/05 05:55:12;;;;;;;;;8.67;8.67;;;;;12.53;65.24;100977.31;4995715;27;46274;-85
2022/04/05 05:57:38;;;;;;;;;10.67;8.00;;;;;12.07;64.97;100895.78;4992749;28;45455;-85
2022/04/05 06:00:09;;;;;;;;;9.67;9.67;;;;;12.32;64.64;100940.91;4995792;27;45476;-84
2022/04/05 06:02:41;;;;;;;;;9.33;7.33;;;;;12.59;65.68;100990.34;4994935;28;45614;-84
2022/04/05 06:05:08;;;;;;;;;8.00;8.00;;;;;12.58;65.19;100988.63;4995745;28;45439;-85
2022/04/05 06:07:34;;;;;;;;;8.33;8.33;;;;;12.60;65.08;100992.09;4995468;28;45326;-85
2022/04/05 06:10:03;;;;;;;;;10.33;9.67;;;;;12.62;65.51;100989.38;4995828;28;45361;-85
2022/04/05 06:12:28;;;;;;;;;8.00;8.00;;;;;12.41;65.27;100962.72;4996288;28;45453;-85
2022/04/05 06:14:54;;;;;;;;;7.33;5.33;;;;;12.15;65.85;100909.63;4995183;27;46179;-85
2022/04/05 06:17:19;;;;;;;;;10.00;7.67;;;;;12.19;65.39;100921.91;5011095;27;45439;-87
2022/04/05 06:19:45;;;;;;;;;9.67;8.33;;;;;12.67;65.75;100990.00;4994424;27;45435;-87
2022/04/05 06:22:11;;;;;;;;;10.67;7.33;;;;;12.52;65.51;100966.66;4995925;27;45358;-88
2022/04/05 06:24:37;;;;;;;;;6.33;6.33;;;;;12.43;65.40;100954.59;5010980;28;48304;-87
2022/04/05 06:27:02;;;;;;;;;11.33;10.33;;;;;12.10;65.76;100890.28;4993971;28;45465;-87
2022/04/05 06:29:27;;;;;;;;;11.00;10.00;;;;;12.24;66.12;100922.56;4995758;28;45480;-87
2022/04/05 06:31:53;;;;;;;;;10.00;10.00;;;;;12.62;66.34;100986.69;4995022;28;45376;-86
2022/04/05 06:34:18;;;;;;;;;8.00;7.00;;;;;12.15;66.95;100913.19;4995150;28;46058;-87
2022/04/05 06:36:44;;;;;;;;;7.67;7.67;;;;;12.06;67.23;100905.63;4994004;28;45448;-86
2022/04/05 06:39:10;;;;;;;;;8.67;8.67;;;;;12.50;67.47;100965.88;4995572;28;45432;-87
2022/04/05 06:41:35;;;;;;;;;10.33;8.33;;;;;12.61;67.22;100983.13;4995022;28;45483;-87
2022/04/05 06:44:01;;;;;;;;;9.33;9.33;;;;;12.29;67.33;100933.91;4993786;27;47233;-85
2022/04/05 06:46:26;;;;;;;;;10.00;8.00;;;;;12.78;67.51;101008.19;4995351;28;45468;-87
2022/04/05 06:48:52;;;;;;;;;9.33;9.33;;;;;12.82;67.61;101015.13;4995128;28;45403;-87
2022/04/05 06:51:18;;;;;;;;;7.00;7.00;;;;;12.83;67.50;101017.75;4995310;28;45524;-86
2022/04/05 06:53:43;;;;;;;;;6.00;6.00;;;;;12.61;67.71;100979.59;4994788;27;46011;-87
2022/04/05 06:56:09;;;;;;;;;10.67;9.00;;;;;12.50;67.91;100955.19;4977590;28;45661;-86
2022/04/05 06:58:35;;;;;;;;;8.33;7.00;;;;;12.87;68.08;101021.13;4994167;28;45486;-86
2022/04/05 07:01:00;;;;;;;;;9.33;9.33;;;;;12.62;67.94;100976.88;4995971;27;45449;-84
2022/04/05 07:03:26;;;;;;;;;7.00;7.00;;;;;12.32;67.93;100931.09;4995574;28;46371;-86
2022/04/05 07:05:51;;;;;;;;;9.33;6.67;;;;;12.24;68.29;100915.44;4994351;28;45575;-86
2022/04/05 07:08:17;;;;;;;;;7.33;7.33;;;;;12.76;67.87;101008.28;4994863;28;45362;-84
2022/04/05 07:10:42;;;;;;;;;6.33;6.33;;;;;12.32;68.70;100924.88;5010518;27;45342;-87
2022/04/05 07:13:10;;;;;;;;;6.67;6.67;;;;;12.67;68.61;100977.50;4994779;28;46168;-87
2022/04/05 07:15:36;;;;;;;;;8.00;8.00;;;;;12.70;68.82;100972.94;4999128;28;45535;-85
2022/04/05 07:18:01;;;;;;;;;7.67;7.67;;;;;12.51;68.46;100924.84;4993182;27;45318;-85
2022/04/05 07:20:27;;;;;;;;;7.33;5.67;;;;;13.00;68.88;101003.53;4995210;28;45571;-85
2022/04/05 07:22:52;;;;;;;;;7.67;7.67;;;;;12.74;68.52;100955.81;4994220;28;45390;-85
2022/04/05 07:25:20;;;;;;;;;5.00;4.00;;;;;12.95;68.02;100992.19;4994024;28;45337;-84
2022/04/05 07:27:47;;;;;;;;;6.33;5.00;;;;;13.06;68.10;101003.25;4993447;28;45397;-85
2022/04/05 07:30:13;;;;;;;;;6.00;6.00;;;;;12.95;68.49;100986.84;4993972;27;45522;-85
2022/04/05 07:32:43;;;;;;;;;6.67;6.67;;;;;12.85;68.80;100977.53;4993166;28;48452;-85
2022/04/05 07:35:09;;;;;;;;;6.67;6.33;;;;;12.83;68.61;100969.59;4993277;28;45282;-85
2022/04/05 07:37:35;;;;;;;;;8.00;7.00;;;;;13.09;68.84;101003.06;4994572;27;45482;-85
2022/04/05 07:40:03;;;;;;;;;7.33;7.33;;;;;12.77;68.47;100944.97;4993304;28;45502;-85
2022/04/05 07:42:29;;;;;;;;;6.67;6.67;;;;;13.23;68.46;101018.44;4991194;28;46371;-89
2022/04/05 07:44:54;;;;;;;;;6.67;5.33;;;;;13.12;68.29;100994.03;4993385;28;45698;-88
2022/04/05 07:47:20;;;;;;;;;11.00;9.00;;;;;13.29;68.78;101015.47;4993198;27;45517;-87
2022/04/05 07:49:45;;;;;;;;;9.67;9.67;;;;;13.17;68.42;101002.69;4994165;28;45589;-87
2022/04/05 07:52:11;;;;;;;;;5.67;5.67;;;;;12.88;68.79;100937.28;4994123;28;46361;-87
2022/04/05 07:54:37;;;;;;;;;8.33;8.33;;;;;13.27;68.89;100993.28;4995008;27;45286;-88
2022/04/05 07:57:03;;;;;;;;;8.00;8.00;;;;;13.12;69.03;100953.03;4993698;28;45468;-87
2022/04/05 07:59:29;;;;;;;;;8.00;8.00;;;;;13.41;68.02;101002.41;4993677;27;45579;-87
2022/04/05 08:01:54;;;;;;;;;8.67;8.67;;;;;12.98;67.97;100929.63;4995065;27;45546;-86
2022/04/05 08:04:20;;;;;;;;;8.33;8.33;;;;;13.26;68.72;100977.28;4994222;27;45263;-87
2022/04/05 08:06:45;;;;;;;;;9.67;9.67;;;;;13.10;68.46;100953.94;4995014;28;45489;-85
2022/04/05 08:09:11;;;;;;;;;11.67;10.33;;;;;13.04;68.52;100934.66;4994638;28;45794;-86
2022/04/05 08:11:36;;;;;;;;;10.00;10.00;;;;;13.41;68.38;100994.38;4994507;28;45913;-86
2022/04/05 08:14:01;;;;;;;;;7.33;6.00;;;;;13.48;67.81;101025.25;4992973;28;45483;-84
2022/04/05 08:16:27;;;;;;;;;6.33;4.67;;;;;13.14;68.08;100975.22;4993843;28;45642;-85
2022/04/05 08:18:52;;;;;;;;;8.67;6.33;;;;;13.03;68.32;100960.56;4995752;28;45426;-86
2022/04/05 08:21:18;;;;;;;;;7.33;7.00;;;;;13.02;68.81;100953.50;5009799;28;46298;-85
2022/04/05 08:23:44;;;;;;;;;8.33;7.00;;;;;13.35;68.74;100986.69;5009319;28;45582;-85
2022/04/05 08:26:09;;;;;;;;;12.33;12.00;;;;;13.18;68.76;100966.06;5007439;28;45453;-87
2022/04/05 08:28:35;;;;;;;;;10.00;10.00;;;;;13.07;69.39;100959.47;4997773;27;45536;-87
2022/04/05 08:31:00;;;;;;;;;12.33;9.67;;;;;13.46;69.23;101000.34;4997268;28;45447;-87
2022/04/05 08:33:27;;;;;;;;;11.00;9.33;;;;;13.40;69.36;100982.81;4996154;28;45574;-87
2022/04/05 08:35:53;;;;;;;;;12.00;7.33;;;;;13.23;69.31;100950.66;4996619;28;45451;-88
2022/04/05 08:38:19;;;;;;;;;8.00;8.00;;;;;13.21;69.29;100944.53;4996722;28;45667;-86
2022/04/05 08:40:44;;;;;;;;;8.67;8.33;;;;;13.36;68.96;100965.16;4995453;27;48119;-87
2022/04/05 08:43:09;;;;;;;;;8.67;7.33;;;;;13.66;69.67;101029.66;4996178;27;45644;-87
2022/04/05 08:45:35;;;;;;;;;9.00;9.00;;;;;13.29;69.40;100961.06;4997021;27;45381;-85
2022/04/05 08:48:01;;;;;;;;;9.00;9.00;;;;;13.54;69.00;100992.81;4996257;28;45512;-85
2022/04/05 08:50:31;;;;;;;;;8.00;8.00;;;;;13.28;68.68;100956.69;4996725;28;46449;-85
2022/04/05 08:53:00;;;;;;;;;11.00;10.67;;;;;13.54;69.19;100995.47;4997022;28;45334;-86
2022/04/05 08:55:26;;;;;;;;;5.67;5.67;;;;;13.18;69.00;100945.53;5014515;27;45477;-84
2022/04/05 08:57:51;;;;;;;;;9.00;9.00;;;;;13.36;69.58;100969.66;4992720;28;45350;-85
2022/04/05 09:00:19;;;;;;;;;11.00;9.33;;;;;13.47;69.53;100972.66;4998061;28;45552;-84
2022/04/05 09:02:59;;;;;;;;;9.00;7.67;;;;;13.66;68.93;101018.06;5012225;27;45403;-84
2022/04/05 09:05:44;;;;;;;;;9.67;9.67;;;;;13.30;68.64;100947.63;4996232;27;45322;-84
2022/04/05 09:08:28;;;;;;;;;9.00;9.00;;;;;13.60;69.31;101007.69;4997099;28;45372;-85
2022/04/05 09:11:03;;;;;;;;;8.67;8.67;;;;;13.77;69.56;101010.34;5016436;28;45543;-85
2022/04/05 09:13:28;;;;;;;;;10.00;7.67;;;;;13.55;68.95;100974.91;5006695;28;45747;-83
2022/04/05 09:15:59;;;;;;;;;7.00;7.00;;;;;13.52;69.34;100965.22;4997056;27;45539;-83
2022/04/05 09:18:44;;;;;;;;;8.67;8.67;;;;;13.84;69.22;101011.75;4997259;28;45470;-83
2022/04/05 09:21:11;;;;;;;;;10.33;8.33;;;;;13.90;69.21;101010.56;4994895;28;46747;-83
2022/04/05 09:23:41;;;;;;;;;10.33;9.00;;;;;13.94;69.48;101017.50;4995220;28;45482;-82
2022/04/05 09:26:17;;;;;;;;;8.67;7.33;;;;;13.41;68.66;100927.44;4996060;28;45515;-84
2022/04/05 09:28:48;;;;;;;;;8.67;8.67;;;;;13.98;69.21;101015.50;4996380;28;45411;-84
2022/04/05 09:31:17;;;;;;;;;9.33;8.67;;;;;14.00;69.53;101008.25;5011689;28;47411;-83
2022/04/05 09:34:08;;;;;;;;;8.67;7.00;;;;;14.06;68.66;101013.28;4994548;27;45451;-84
2022/04/05 09:36:39;;;;;;;;;8.67;8.00;;;;;13.63;68.36;100940.56;4992267;28;45763;-83
2022/04/05 09:39:19;;;;;;;;;8.67;8.67;;;;;14.05;68.65;101014.25;4996197;27;45455;-83
2022/04/05 09:41:52;;;;;;;;;9.00;8.33;;;;;14.10;69.14;101013.03;5007653;28;46524;-84
2022/04/05 09:44:29;;;;;;;;;9.67;8.33;;;;;14.03;69.42;100997.38;5016105;28;45512;-83
2022/04/05 09:47:08;;;;;;;;;9.00;8.00;;;;;14.22;68.65;101016.88;5016558;28;45486;-84
2022/04/05 09:49:36;;;;;;;;;8.33;8.33;;;;;14.24;68.60;101014.97;5016379;28;45247;-84
2022/04/05 09:52:02;;;;;;;;;9.00;8.00;;;;;14.17;68.35;101002.84;5014733;28;45629;-84
2022/04/05 09:54:30;;;;;;;;;9.00;8.67;;;;;13.75;68.41;100942.59;5015127;28;45872;-84
2022/04/05 09:57:07;;;;;;;;;10.33;7.67;;;;;13.62;68.13;100912.91;5000042;28;45424;-85
2022/04/05 09:59:40;;;;;;;;;8.67;8.67;;;;;14.08;67.50;100985.44;4996250;28;45502;-84
2022/04/05 10:02:12;;;;;;;;;7.33;7.33;;;;;14.27;67.89;101017.47;4994598;28;48185;-84
2022/04/05 10:04:59;;;;;;;;;8.67;7.67;;;;;14.22;68.00;101014.19;4976604;28;45265;-84
2022/04/05 10:07:26;;;;;;;;;8.00;8.00;;;;;14.23;67.85;101015.91;4975341;28;45609;-84
2022/04/05 10:09:52;;;;;;;;;8.33;8.00;;;;;14.15;68.00;100980.63;4991911;28;45388;-85
2022/04/05 10:12:19;;;;;;;;;7.00;5.00;;;;;14.04;68.15;100980.34;4976269;28;45471;-84
2022/04/05 10:14:44;;;;;;;;;9.00;9.00;;;;;13.86;67.97;100940.19;4991933;28;45392;-85
2022/04/05 10:17:12;;;;;;;;;14.67;9.67;;;;;14.28;67.62;101012.97;4996288;28;45439;-85
2022/04/05 10:19:44;;;;;;;;;7.00;7.00;;;;;14.35;68.12;101023.28;4995485;28;45453;-85
2022/04/05 10:22:11;;;;;;;;;7.33;6.00;;;;;13.92;68.16;100955.06;4992989;28;45458;-85
2022/04/05 10:24:38;;;;;;;;;10.33;8.33;;;;;14.18;67.97;100992.97;4995768;27;45180;-85
2022/04/05 10:27:05;;;;;;;;;8.33;8.33;;;;;13.97;67.82;100949.47;4995744;28;45505;-84
2022/04/05 10:29:31;;;;;;;;;7.33;6.67;;;;;14.39;67.80;101023.97;5011494;28;45509;-84
2022/04/05 10:32:17;;;;;;;;;7.67;7.67;;;;;14.25;67.80;100992.56;5010145;28;45351;-85
2022/04/05 10:34:53;;;;;;;;;10.67;8.00;;;;;13.86;67.59;100920.56;4981031;28;45778;-87
2022/04/05 10:37:29;;;;;;;;;8.67;8.00;;;;;14.10;67.51;100977.34;4998167;27;45354;-86
2022/04/05 10:39:57;;;;;;;;;8.00;6.67;;;;;14.43;67.52;101024.69;5021960;27;45337;-84
2022/04/05 10:42:25;;;;;;;;;10.00;6.67;;;;;14.06;67.96;100957.84;5013552;28;45466;-85
2022/04/05 10:45:16;;;;;;;;;10.67;8.67;;;;;14.50;67.99;101010.84;5013755;28;45925;-85
2022/04/05 10:47:59;;;;;;;;;10.00;8.67;;;;;14.49;68.25;101003.75;4989963;28;45698;-84
2022/04/05 10:50:25;;;;;;;;;7.33;7.33;;;;;14.25;67.92;100955.03;4989656;28;45568;-86
2022/04/05 10:53:21;;;;;;;;;4.00;4.00;;;;;14.59;67.63;101014.00;4994070;27;46156;-85
2022/04/05 10:56:06;;;;;;;;;5.00;4.67;;;;;14.60;67.52;101010.34;4993948;27;45413;-87
2022/04/05 10:58:47;;;;;;;;;7.33;6.33;;;;;14.63;67.54;101010.19;5005675;28;45328;-87
2022/04/05 11:01:19;;;;;;;;;9.00;6.00;;;;;14.63;66.93;101002.13;4983006;28;45572;-87
2022/04/05 11:04:14;;;;;;;;;6.67;5.33;;;;;14.63;67.05;101005.66;4994326;28;48359;-89
2022/04/05 11:06:58;;;;;;;;;7.00;5.00;;;;;14.64;67.17;101006.56;5011662;27;45482;-85
2022/04/05 11:09:25;;;;;;;;;8.00;6.33;;;;;14.34;66.75;100949.16;5015426;28;45474;-90
2022/04/05 11:11:53;;;;;;;;;7.67;7.67;;;;;13.94;67.05;100887.03;5015718;28;45520;-88
2022/04/05 11:14:47;;;;;;;;;8.67;6.33;;;;;14.69;67.15;100994.59;4995707;27;48407;-90
2022/04/05 11:17:14;;;;;;;;;6.67;6.33;;;;;14.69;66.99;100993.75;4994028;28;45575;-88
2022/04/05 11:19:43;;;;;;;;;7.00;7.00;;;;;14.55;67.20;100968.56;4994387;28;45396;-84
2022/04/05 11:22:21;;;;;;;;;5.67;5.67;;;;;14.30;67.25;100931.50;4994886;28;45325;-86
2022/04/05 11:24:50;;;;;;;;;8.67;7.33;;;;;14.74;67.39;100997.03;4993697;28;48450;-87